createdAt,value
2019-04-07T00:01:00.316Z,17.30
2019-04-07T00:03:32.309Z,18.57
2019-04-07T00:06:04.161Z,17.20
2019-04-07T00:08:36.589Z,17.97
2019-04-07T00:11:13.229Z,17.43
2019-04-07T00:14:16.541Z,18.17
2019-04-07T00:16:48.435Z,19.00
2019-04-07T00:19:43.610Z,18.50
2019-04-07T00:22:19.933Z,17.90
2019-04-07T00:24:50.640Z,19.53
2019-04-07T00:27:27.922Z,18.93
2019-04-07T00:30:05.226Z,18.43
2019-04-07T00:32:39.114Z,17.63
2019-04-07T00:35:22.512Z,20.07
2019-04-07T00:38:05.549Z,17.43
2019-04-07T00:40:40.339Z,17.53
2019-04-07T00:43:13.612Z,18.57
2019-04-07T00:45:56.988Z,17.80
2019-04-07T00:52:38.066Z,18.20
2019-04-07T00:55:20.961Z,17.30
2019-04-07T00:57:56.111Z,16.97
2019-04-07T01:00:46.308Z,17.37
2019-04-07T01:03:40.270Z,19.07
2019-04-07T01:17:08.249Z,17.40
2019-04-07T01:20:26.058Z,16.93
2019-04-07T01:23:03.932Z,16.30
2019-04-07T01:29:49.087Z,17.57
2019-04-07T01:33:35.762Z,17.70
2019-04-07T01:36:15.061Z,16.83
2019-04-07T01:46:09.881Z,18.57
2019-04-07T01:49:03.096Z,16.47
2019-04-07T01:52:24.412Z,17.70
2019-04-07T01:58:40.665Z,16.53
2019-04-07T02:05:39.178Z,17.33
2019-04-07T02:08:50.734Z,16.20
2019-04-07T02:14:34.461Z,17.00
2019-04-07T02:21:05.300Z,16.57
2019-04-07T02:27:33.587Z,16.80
2019-04-07T02:30:17.560Z,16.13
2019-04-07T02:33:22.700Z,16.90
2019-04-07T02:36:31.355Z,14.70
2019-04-07T02:50:14.252Z,12.67
2019-04-07T03:01:02.102Z,12.17
2019-04-07T03:03:42.704Z,13.50
2019-04-07T03:06:53.114Z,12.73
2019-04-07T03:09:57.845Z,13.27
2019-04-07T03:21:31.107Z,12.90
2019-04-07T03:28:14.186Z,13.97
2019-04-07T03:35:06.167Z,13.13
2019-04-07T03:38:06.464Z,13.00
2019-04-07T03:41:42.791Z,15.30
2019-04-07T03:44:41.580Z,13.50
2019-04-07T03:47:36.380Z,15.23
2019-04-07T03:50:33.373Z,14.70
2019-04-07T03:53:32.382Z,13.73
2019-04-07T03:56:47.684Z,13.00
2019-04-07T03:59:29.118Z,12.70
2019-04-07T04:02:39.003Z,14.40
2019-04-07T04:08:27.376Z,14.27
2019-04-07T04:11:23.495Z,14.43
2019-04-07T04:14:33.288Z,15.47
2019-04-07T04:17:04.942Z,15.60
2019-04-07T04:19:59.477Z,14.33
2019-04-07T04:22:28.983Z,14.73
2019-04-07T04:25:07.051Z,13.97
2019-04-07T04:27:38.787Z,14.90
2019-04-07T04:31:08.082Z,14.93
2019-04-07T04:33:59.810Z,14.30
2019-04-07T04:39:51.055Z,14.10
2019-04-07T04:42:58.286Z,14.07
2019-04-07T04:45:50.629Z,12.83
2019-04-07T04:48:26.481Z,14.03
2019-04-07T04:51:00.940Z,13.73
2019-04-07T04:53:45.592Z,13.50
2019-04-07T04:57:09.108Z,13.40
2019-04-07T04:59:53.940Z,14.10
2019-04-07T05:02:43.519Z,12.83
2019-04-07T05:05:18.686Z,13.23
2019-04-07T05:08:07.248Z,14.37
2019-04-07T05:10:42.851Z,13.97
2019-04-07T05:20:21.758Z,12.33
2019-04-07T05:22:52.277Z,12.23
2019-04-07T05:26:03.537Z,11.47
2019-04-07T05:28:36.772Z,13.77
2019-04-07T05:31:05.678Z,13.50
2019-04-07T05:40:09.135Z,12.10
2019-04-07T05:42:47.528Z,10.77
2019-04-07T05:46:06.021Z,10.57
2019-04-07T05:48:47.518Z,10.20
2019-04-07T05:51:37.118Z,10.43
2019-04-07T05:54:07.147Z,9.80
2019-04-07T05:56:58.717Z,9.80
2019-04-07T05:59:33.177Z,10.40
2019-04-07T06:02:08.080Z,10.80
2019-04-07T06:05:04.154Z,9.80
2019-04-07T06:08:22.455Z,10.17
2019-04-07T06:10:39.269Z,9.60
2019-04-07T06:13:34.482Z,10.40
2019-04-07T06:16:15.174Z,10.20
2019-04-07T06:18:52.721Z,9.03
2019-04-07T06:21:37.752Z,10.17
2019-04-07T06:24:11.350Z,9.63
2019-04-07T06:26:48.884Z,9.60
2019-04-07T06:29:24.704Z,8.70
2019-04-07T06:32:04.576Z,8.67
2019-04-07T06:34:49.003Z,9.27
2019-04-07T06:41:02.848Z,7.73
2019-04-07T06:43:35.176Z,8.83
2019-04-07T06:46:30.539Z,9.00
2019-04-07T06:49:19.555Z,8.27
2019-04-07T06:52:27.122Z,8.23
2019-04-07T06:59:01.917Z,7.63
2019-04-07T07:05:05.536Z,8.80
2019-04-07T07:07:49.793Z,7.53
2019-04-07T07:10:44.533Z,7.97
2019-04-07T07:13:41.332Z,8.03
2019-04-07T07:16:31.789Z,7.20
2019-04-07T07:19:14.198Z,7.43
2019-04-07T07:22:23.603Z,7.30
2019-04-07T07:24:56.441Z,7.57
2019-04-07T07:27:23.993Z,6.90
2019-04-07T07:29:53.900Z,9.23
2019-04-07T07:32:23.689Z,9.33
2019-04-07T07:34:56.077Z,7.73
2019-04-07T07:37:27.999Z,7.30
2019-04-07T07:40:06.607Z,7.57
2019-04-07T07:42:34.316Z,7.33
2019-04-07T07:45:14.151Z,8.13
2019-04-07T07:47:43.810Z,7.07
2019-04-07T07:50:13.597Z,7.93
2019-04-07T07:52:43.114Z,7.87
2019-04-07T07:55:18.534Z,8.17
2019-04-07T07:57:48.164Z,8.50
2019-04-07T08:00:18.823Z,7.63
2019-04-07T08:02:52.558Z,8.53
2019-04-07T08:05:24.834Z,8.43
2019-04-07T08:07:54.068Z,8.40
2019-04-07T08:10:26.906Z,7.50
2019-04-07T08:12:57.441Z,8.03
2019-04-07T08:15:42.541Z,7.40
2019-04-07T08:18:19.836Z,7.50
2019-04-07T08:20:54.741Z,7.77
2019-04-07T08:23:26.817Z,7.40
2019-04-07T08:26:02.686Z,7.03
2019-04-07T08:28:33.682Z,7.70
2019-04-07T08:31:02.480Z,6.60
2019-04-07T08:33:33.213Z,7.43
2019-04-07T08:36:02.228Z,7.23
2019-04-07T08:38:33.244Z,7.13
2019-04-07T08:41:03.036Z,7.13
2019-04-07T08:43:32.014Z,6.97
2019-04-07T08:46:05.087Z,7.57
2019-04-07T08:48:39.146Z,7.27
2019-04-07T08:51:11.279Z,7.50
2019-04-07T08:53:43.551Z,6.70
2019-04-07T08:56:11.899Z,6.90
2019-04-07T08:58:41.406Z,7.30
2019-04-07T09:01:10.559Z,7.07
2019-04-07T09:03:44.436Z,7.90
2019-04-07T09:06:13.398Z,7.20
2019-04-07T09:08:42.262Z,6.50
2019-04-07T09:11:15.895Z,7.93
2019-04-07T09:13:51.038Z,7.10
2019-04-07T09:16:38.242Z,6.80
2019-04-07T09:19:41.640Z,6.80
2019-04-07T09:22:29.715Z,7.40
2019-04-07T09:25:15.576Z,6.43
2019-04-07T09:28:24.104Z,6.40
2019-04-07T09:31:06.519Z,6.20
2019-04-07T09:33:48.920Z,6.50
2019-04-07T09:36:43.056Z,6.33
2019-04-07T09:39:53.987Z,6.53
2019-04-07T09:42:30.090Z,6.73
2019-04-07T09:45:23.978Z,5.30
2019-04-07T09:48:30.104Z,6.90
2019-04-07T09:51:21.839Z,6.93
2019-04-07T09:54:10.036Z,7.07
2019-04-07T09:57:08.578Z,6.80
2019-04-07T09:59:52.483Z,6.47
2019-04-07T10:02:39.800Z,5.37
2019-04-07T10:05:40.176Z,4.73
2019-04-07T10:08:28.558Z,4.33
2019-04-07T10:11:40.367Z,4.23
2019-04-07T10:14:20.658Z,4.43
2019-04-07T10:17:18.965Z,4.70
2019-04-07T10:20:12.399Z,4.30
2019-04-07T10:23:10.721Z,3.43
2019-04-07T10:26:01.772Z,4.70
2019-04-07T10:28:55.454Z,4.30
2019-04-07T10:31:34.989Z,3.60
2019-04-07T10:34:25.980Z,3.93
2019-04-07T10:37:04.999Z,3.90
2019-04-07T10:39:58.237Z,4.77
2019-04-07T10:42:44.927Z,4.20
2019-04-07T10:45:42.412Z,4.13
2019-04-07T10:48:29.801Z,3.60
2019-04-07T10:51:21.306Z,2.90
2019-04-07T10:54:01.527Z,3.67
2019-04-07T11:00:09.046Z,3.00
2019-04-07T11:03:30.771Z,2.73
2019-04-07T11:06:27.193Z,2.33
2019-04-07T11:09:33.096Z,2.53
2019-04-07T11:12:21.163Z,5.17
2019-04-07T11:16:06.578Z,3.60
2019-04-07T11:50:22.332Z,1.87
2019-04-07T11:50:25.045Z,1.70
2019-04-07T11:53:07.576Z,1.77
2019-04-07T11:56:06.972Z,4.30
2019-04-07T11:59:10.143Z,1.90
2019-04-07T12:02:00.848Z,2.33
2019-04-07T12:08:32.340Z,1.63
2019-04-07T12:11:19.964Z,2.00
2019-04-07T12:14:16.173Z,1.93
2019-04-07T12:17:08.933Z,1.53
2019-04-07T12:19:57.141Z,1.77
2019-04-07T12:22:49.072Z,2.00
2019-04-07T12:25:34.639Z,1.70
2019-04-07T12:28:41.227Z,1.30
2019-04-07T12:32:00.854Z,1.97
2019-04-07T12:35:29.349Z,1.72
2019-04-07T12:37:47.680Z,1.97
2019-04-07T12:40:44.255Z,1.60
2019-04-07T12:43:39.238Z,1.98
2019-04-07T12:46:49.664Z,1.70
2019-04-07T12:49:39.225Z,1.52
2019-04-07T12:52:32.215Z,1.90
2019-04-07T12:55:35.037Z,1.90
2019-04-07T12:59:01.456Z,2.27
2019-04-07T13:01:52.091Z,2.05
2019-04-07T13:08:49.029Z,1.70
2019-04-07T13:15:47.464Z,2.08
2019-04-07T13:18:43.591Z,1.60
2019-04-07T13:21:27.872Z,1.50
2019-04-07T13:24:28.833Z,1.57
2019-04-07T13:27:14.505Z,1.70
2019-04-07T13:33:54.340Z,1.90
2019-04-07T13:36:37.704Z,1.60
2019-04-07T13:39:44.993Z,1.80
2019-04-07T13:42:42.599Z,1.52
2019-04-07T13:46:01.266Z,1.77
2019-04-07T13:48:44.248Z,1.98
2019-04-07T13:51:32.926Z,1.50
2019-04-07T13:54:22.258Z,1.70
2019-04-07T13:57:23.210Z,1.60
2019-04-07T14:04:01.232Z,1.55
2019-04-07T14:06:48.995Z,1.60
2019-04-07T14:09:39.018Z,3.12
2019-04-07T14:12:32.563Z,1.50
2019-04-07T14:15:43.165Z,1.87
2019-04-07T14:18:44.484Z,1.35
2019-04-07T14:22:07.206Z,1.47
2019-04-07T14:28:35.812Z,1.90
2019-04-07T14:32:06.687Z,1.30
2019-04-07T14:34:58.844Z,1.40
2019-04-07T14:38:07.929Z,1.67
2019-04-07T14:44:42.036Z,1.63
2019-04-07T14:57:40.642Z,1.53
2019-04-07T15:00:51.274Z,1.70
2019-04-07T15:03:31.899Z,1.42
2019-04-07T15:06:44.911Z,1.80
2019-04-07T15:10:00.440Z,2.40
2019-04-07T15:19:28.873Z,1.93
2019-04-07T15:22:06.770Z,1.70
2019-04-07T15:24:57.018Z,1.43
2019-04-07T15:27:33.724Z,1.60
2019-04-07T15:30:15.347Z,4.33
2019-04-07T15:33:22.702Z,1.90
2019-04-07T15:35:55.921Z,1.43
2019-04-07T15:41:38.658Z,1.55
2019-04-07T15:44:37.181Z,1.40
2019-04-07T15:47:13.261Z,2.67
2019-04-07T15:49:48.498Z,2.03
2019-04-07T15:52:17.503Z,1.57
2019-04-07T15:54:46.842Z,2.07
2019-04-07T15:57:20.224Z,1.90
2019-04-07T15:59:52.340Z,1.80
2019-04-07T16:02:25.780Z,2.47
2019-04-07T16:05:01.336Z,2.20
2019-04-07T16:07:29.503Z,2.87
2019-04-07T16:09:59.642Z,2.23
2019-04-07T16:12:46.515Z,2.00
2019-04-07T16:15:35.025Z,47.77
2019-04-07T16:18:23.241Z,71.70
2019-04-07T16:21:40.848Z,10.33
2019-04-07T16:24:47.407Z,2.20
2019-04-07T16:27:19.594Z,2.87
2019-04-07T16:29:55.832Z,2.63
2019-04-07T16:32:39.967Z,2.17
2019-04-07T16:41:55.457Z,2.27
2019-04-07T16:44:26.596Z,1.73
2019-04-07T16:47:19.306Z,1.80
2019-04-07T17:07:49.607Z,2.37
2019-04-07T17:20:27.876Z,3.43
2019-04-07T17:26:03.230Z,2.50
2019-04-07T17:28:38.910Z,3.07
2019-04-07T17:34:56.311Z,3.20
2019-04-07T17:40:33.063Z,2.67
2019-04-07T17:44:22.003Z,2.23
2019-04-07T17:58:32.332Z,2.00
2019-04-07T18:02:17.440Z,2.43
2019-04-07T18:05:23.200Z,2.50
2019-04-07T18:11:11.873Z,2.40
2019-04-07T18:14:40.610Z,2.63
2019-04-07T18:17:30.139Z,2.57
2019-04-07T18:20:21.563Z,2.20
2019-04-07T18:23:06.038Z,2.23
2019-04-07T18:25:51.845Z,2.40
2019-04-07T18:28:54.286Z,1.93
2019-04-07T18:31:43.494Z,2.13
2019-04-07T18:34:41.819Z,2.80
2019-04-07T18:37:32.421Z,2.70
2019-04-07T18:40:19.960Z,3.77
2019-04-07T18:43:21.405Z,2.80
2019-04-07T18:46:13.313Z,3.90
2019-04-07T18:50:07.616Z,6.23
2019-04-07T18:54:21.418Z,4.37
2019-04-07T18:56:59.602Z,6.63
2019-04-07T19:00:05.953Z,5.37
2019-04-07T19:03:02.419Z,5.60
2019-04-07T19:06:20.167Z,4.60
2019-04-07T19:09:08.082Z,3.47
2019-04-07T19:12:21.686Z,3.00
2019-04-07T19:15:08.858Z,4.70
2019-04-07T19:18:29.209Z,4.80
2019-04-07T19:21:11.820Z,3.50
2019-04-07T19:24:04.427Z,3.60
2019-04-07T19:26:54.648Z,2.80
2019-04-07T19:30:03.756Z,3.60
2019-04-07T19:40:35.974Z,2.80
2019-04-07T19:50:33.883Z,3.73
2019-04-07T20:07:40.069Z,2.50
2019-04-07T20:10:31.076Z,3.20
2019-04-07T20:13:37.918Z,3.60
2019-04-07T20:16:45.942Z,3.67
2019-04-07T20:23:47.963Z,5.13
2019-04-07T20:26:50.952Z,4.90
2019-04-07T20:33:36.141Z,3.37
2019-04-07T20:36:38.058Z,3.60
2019-04-07T20:43:03.495Z,3.20
2019-04-07T20:46:30.072Z,3.10
2019-04-07T20:50:07.613Z,2.57
2019-04-07T20:56:21.124Z,2.97
2019-04-07T20:59:11.841Z,2.97
2019-04-07T21:02:09.456Z,2.77
2019-04-07T21:05:01.038Z,2.60
2019-04-07T21:07:53.556Z,2.73
2019-04-07T21:10:59.278Z,3.53
2019-04-07T21:14:05.662Z,3.17
2019-04-07T21:18:31.519Z,2.70
2019-04-07T21:20:14.508Z,2.77
2019-04-07T21:23:18.089Z,3.43
2019-04-07T21:26:59.435Z,4.23
2019-04-07T21:29:59.131Z,5.27
2019-04-07T21:33:08.965Z,5.10
2019-04-07T21:36:07.871Z,3.67
2019-04-07T21:42:25.421Z,3.33
2019-04-07T21:48:58.053Z,3.30
2019-04-07T21:52:12.988Z,1.67
2019-04-07T21:55:13.772Z,3.10
2019-04-07T21:58:03.900Z,2.93
2019-04-07T22:01:02.601Z,3.87
2019-04-07T22:04:03.016Z,3.63
2019-04-07T22:07:18.292Z,3.53
2019-04-07T22:13:28.650Z,4.40
2019-04-07T22:19:24.361Z,3.40
2019-04-07T22:22:06.670Z,5.03
2019-04-07T22:25:11.488Z,3.30
2019-04-07T22:27:41.609Z,3.90
2019-04-07T22:30:22.709Z,4.27
2019-04-07T22:33:16.304Z,4.83
2019-04-07T22:39:02.407Z,3.63
2019-04-07T22:41:42.865Z,3.80
2019-04-07T22:44:20.393Z,3.43
2019-04-07T22:46:58.351Z,4.80
2019-04-07T22:49:30.815Z,4.03
2019-04-07T22:54:40.756Z,4.57
2019-04-07T22:57:15.500Z,4.80
2019-04-07T22:59:47.176Z,7.17
2019-04-07T23:02:22.086Z,4.27
2019-04-07T23:08:25.330Z,4.30
2019-04-07T23:14:27.493Z,3.20
2019-04-07T23:20:15.020Z,7.67
2019-04-07T23:23:14.499Z,7.80
2019-04-07T23:32:27.499Z,5.60
2019-04-07T23:35:25.662Z,4.27
2019-04-07T23:38:03.660Z,5.10
2019-04-07T23:40:35.361Z,3.63
2019-04-07T23:59:08.131Z,3.27
